Time;durP1;ratioP1;P1;durP2;ratioP2;P2;SDS_P1;SDS_P2;PMS_P1;PMS_P2;Temp;Humidity;BMP_temperature;BMP_pressure;BME280_temperature;BME280_humidity;BME280_pressure;Samples;Min_cycle;Max_cycle;Signal;HPM_P1;HPM_P2
2023/01/03 00:01:17;;;;;;;17.55;14.57;;;10.60;99.90;;;;;;4949475;28;20372;-89
2023/01/03 00:03:44;;;;;;;16.95;15.27;;;10.60;99.90;;;;;;4937221;29;20051;-88
2023/01/03 00:06:17;;;;;;;18.67;15.73;;;10.60;99.90;;;;;;4923588;29;20492;-88
2023/01/03 00:08:43;;;;;;;21.40;14.93;;;10.60;99.90;;;;;;4944332;29;20035;-89
2023/01/03 00:11:11;;;;;;;17.52;15.38;;;10.60;99.90;;;;;;4922316;29;20043;-90
2023/01/03 00:13:37;;;;;;;17.65;14.90;;;10.60;99.90;;;;;;4950426;29;20035;-89
2023/01/03 00:16:04;;;;;;;24.65;15.25;;;10.60;99.90;;;;;;4951256;28;20046;-88
2023/01/03 00:18:30;;;;;;;19.08;15.02;;;10.50;99.90;;;;;;4955027;29;20035;-89
2023/01/03 00:21:03;;;;;;;16.85;15.15;;;10.60;99.90;;;;;;4938732;29;20381;-89
2023/01/03 00:23:29;;;;;;;20.00;15.80;;;10.50;99.90;;;;;;4954625;29;20039;-89
2023/01/03 00:25:55;;;;;;;17.15;15.93;;;10.40;99.90;;;;;;4941831;29;20473;-90
2023/01/03 00:28:21;;;;;;;24.33;15.75;;;10.40;99.90;;;;;;4938723;29;20043;-88
2023/01/03 00:30:47;;;;;;;19.35;16.50;;;10.30;99.90;;;;;;4951434;28;20436;-89
2023/01/03 00:33:13;;;;;;;25.00;15.55;;;10.30;99.90;;;;;;4937355;29;20046;-87
2023/01/03 00:35:39;;;;;;;20.48;16.15;;;10.30;99.90;;;;;;4938280;29;20054;-89
2023/01/03 00:38:05;;;;;;;17.33;15.55;;;10.20;99.90;;;;;;4920997;29;20039;-89
2023/01/03 00:40:31;;;;;;;17.48;15.85;;;10.20;99.90;;;;;;4921690;29;20040;-89
2023/01/03 00:45:42;;;;;;;18.38;15.05;;;10.20;99.90;;;;;;4945375;28;20055;-88
2023/01/03 00:48:08;;;;;;;16.92;14.93;;;10.20;99.90;;;;;;4929077;29;20035;-88
2023/01/03 00:50:36;;;;;;;18.48;15.55;;;10.10;99.90;;;;;;4949427;29;20156;-87
2023/01/03 00:53:02;;;;;;;20.00;15.40;;;10.00;99.90;;;;;;4954122;29;20039;-89
2023/01/03 00:55:28;;;;;;;17.30;15.68;;;10.00;99.90;;;;;;4956589;28;20031;-88
2023/01/03 00:57:54;;;;;;;17.15;15.68;;;10.00;99.90;;;;;;4925988;29;20043;-88
2023/01/03 01:00:20;;;;;;;22.50;15.02;;;9.90;99.90;;;;;;4938959;28;20445;-90
2023/01/03 01:02:46;;;;;;;19.73;16.13;;;9.90;99.90;;;;;;4939040;29;20065;-89
2023/01/03 01:05:12;;;;;;;18.48;14.57;;;9.90;99.90;;;;;;4950705;29;20039;-89
2023/01/03 01:07:38;;;;;;;17.35;15.38;;;10.00;99.90;;;;;;4932903;29;20035;-90
2023/01/03 01:10:05;;;;;;;16.55;14.88;;;9.90;99.90;;;;;;4952722;29;20035;-89
2023/01/03 01:12:31;;;;;;;16.52;15.05;;;9.90;99.90;;;;;;4936111;29;20058;-89
2023/01/03 01:14:57;;;;;;;17.60;14.23;;;9.90;99.90;;;;;;4954397;29;20031;-89
2023/01/03 01:17:23;;;;;;;24.70;15.45;;;9.80;99.90;;;;;;4949199;28;20043;-89
2023/01/03 01:19:49;;;;;;;17.00;14.52;;;9.80;99.90;;;;;;4954172;28;20038;-90
2023/01/03 01:22:15;;;;;;;16.88;15.02;;;9.90;99.90;;;;;;4947886;29;20493;-90
2023/01/03 01:24:41;;;;;;;19.33;15.77;;;9.70;99.90;;;;;;4968052;28;20035;-89
2023/01/03 01:27:07;;;;;;;18.83;15.75;;;9.70;99.90;;;;;;4956436;28;20453;-88
2023/01/03 01:29:34;;;;;;;24.08;16.75;;;9.70;99.90;;;;;;4969029;28;20051;-89
2023/01/03 01:32:00;;;;;;;16.40;14.82;;;9.70;99.90;;;;;;4941126;28;20032;-89
2023/01/03 01:34:26;;;;;;;25.10;15.30;;;9.50;99.90;;;;;;4958399;28;20058;-89
2023/01/03 01:36:52;;;;;;;18.60;16.50;;;9.40;99.90;;;;;;4951304;29;20023;-90
2023/01/03 01:39:20;;;;;;;19.35;15.63;;;9.50;99.90;;;;;;4929910;29;20200;-89
2023/01/03 01:44:45;;;;;;;17.67;15.90;;;9.50;99.90;;;;;;4959486;28;20042;-89
2023/01/03 01:47:35;;;;;;;18.98;15.90;;;9.40;99.90;;;;;;4952746;28;20043;-89
2023/01/03 01:50:33;;;;;;;17.65;15.73;;;9.30;99.90;;;;;;4961946;28;20393;-89
2023/01/03 01:53:08;;;;;;;17.83;15.60;;;9.40;99.90;;;;;;4945029;29;20054;-89
2023/01/03 01:55:46;;;;;;;17.45;13.80;;;9.30;99.90;;;;;;4953119;29;20034;-90
2023/01/03 01:58:12;;;;;;;16.13;14.37;;;9.30;99.90;;;;;;4936454;29;20385;-88
2023/01/03 02:00:39;;;;;;;16.92;14.93;;;9.20;99.90;;;;;;4935753;28;20051;-89
2023/01/03 02:03:06;;;;;;;22.43;15.00;;;9.00;99.90;;;;;;4954559;28;20050;-90
2023/01/03 02:05:34;;;;;;;16.90;15.20;;;8.90;99.90;;;;;;4935773;29;20536;-88
2023/01/03 02:08:00;;;;;;;15.40;13.97;;;9.00;99.90;;;;;;4934666;29;20488;-89
2023/01/03 02:10:38;;;;;;;15.93;14.67;;;9.00;99.90;;;;;;4950628;29;20032;-89
2023/01/03 02:13:24;;;;;;;21.10;14.60;;;9.00;99.90;;;;;;4951164;29;20031;-88
2023/01/03 02:16:03;;;;;;;15.63;14.13;;;9.00;99.90;;;;;;4952873;28;20020;-88
2023/01/03 02:18:29;;;;;;;16.40;14.07;;;9.00;99.90;;;;;;4936485;29;20035;-89
2023/01/03 02:21:20;;;;;;;16.33;13.63;;;9.00;99.90;;;;;;4957127;28;20031;-90
2023/01/03 02:24:07;;;;;;;14.30;13.10;;;8.90;99.90;;;;;;4953401;29;20039;-90
2023/01/03 02:27:04;;;;;;;16.27;13.97;;;8.80;99.90;;;;;;4956748;29;20250;-88
2023/01/03 02:29:41;;;;;;;14.90;13.40;;;8.90;99.90;;;;;;4955570;29;20039;-88
2023/01/03 02:32:15;;;;;;;15.25;13.80;;;8.80;99.90;;;;;;4952803;28;20050;-90
2023/01/03 02:35:02;;;;;;;15.23;13.73;;;8.70;99.90;;;;;;4936501;29;20039;-89
2023/01/03 02:37:50;;;;;;;16.07;14.47;;;8.60;99.90;;;;;;4960358;28;20035;-89
2023/01/03 02:40:22;;;;;;;15.17;13.57;;;8.60;99.90;;;;;;4917532;29;20040;-88
2023/01/03 02:43:01;;;;;;;17.73;14.93;;;8.40;99.90;;;;;;4920303;29;20059;-89
2023/01/03 02:45:36;;;;;;;14.87;13.33;;;8.50;99.90;;;;;;4916978;29;20035;-89
2023/01/03 02:48:12;;;;;;;15.60;14.10;;;8.60;99.90;;;;;;4909061;29;20040;-88
2023/01/03 02:50:44;;;;;;;15.30;13.80;;;8.60;99.90;;;;;;4906085;29;20044;-89
2023/01/03 02:53:11;;;;;;;14.87;13.43;;;8.70;99.90;;;;;;4912219;29;20040;-89
2023/01/03 02:55:37;;;;;;;19.10;14.10;;;8.70;99.90;;;;;;4914040;29;20096;-89
2023/01/03 02:58:08;;;;;;;15.17;13.70;;;8.60;99.90;;;;;;4920188;29;20063;-89
2023/01/03 03:00:40;;;;;;;17.40;13.27;;;8.70;99.90;;;;;;4918952;28;20048;-88
2023/01/03 03:03:09;;;;;;;;;;;8.70;99.90;;;;;;4911068;29;20044;-88
2023/01/03 03:06:05;;;;;;;14.57;13.13;;;8.70;99.90;;;;;;4905395;29;19922;-90
2023/01/03 03:08:32;;;;;;;18.37;13.83;;;8.60;99.90;;;;;;4900289;29;20037;-89
2023/01/03 03:13:58;;;;;;;16.00;14.60;;;8.30;99.90;;;;;;4893674;29;20047;-89
2023/01/03 03:24:59;;;;;;;16.77;14.17;;;8.30;99.90;;;;;;4960883;28;20058;-89
2023/01/03 03:30:11;;;;;;;15.27;13.80;;;8.30;99.90;;;;;;4931178;28;20046;-89
2023/01/03 03:32:37;;;;;;;14.53;13.03;;;8.20;99.90;;;;;;4922699;29;20023;-89
2023/01/03 03:35:04;;;;;;;15.60;14.10;;;8.30;99.90;;;;;;4905791;29;20051;-90
2023/01/03 03:37:30;;;;;;;14.97;13.60;;;8.40;99.90;;;;;;4908838;29;20035;-89
2023/01/03 03:45:58;;;;;;;14.17;12.90;;;8.40;99.90;;;;;;4944137;28;20043;-88
2023/01/03 03:48:28;;;;;;;15.07;12.87;;;8.30;99.90;;;;;;4928433;29;20028;-88
2023/01/03 03:51:05;;;;;;;14.93;13.27;;;8.30;99.90;;;;;;4905489;29;20031;-89
2023/01/03 03:53:33;;;;;;;15.03;13.63;;;8.30;99.90;;;;;;4921999;29;20389;-88
2023/01/03 03:56:00;;;;;;;15.77;14.10;;;8.30;99.90;;;;;;4952144;29;20023;-89
2023/01/03 03:58:50;;;;;;;16.50;14.07;;;8.20;99.90;;;;;;4932189;29;20028;-89
2023/01/03 04:01:18;;;;;;;15.00;13.60;;;8.20;99.90;;;;;;4926098;29;20396;-89
2023/01/03 04:03:44;;;;;;;15.47;13.93;;;8.10;99.90;;;;;;4939145;29;20434;-88
2023/01/03 04:06:23;;;;;;;16.00;14.00;;;8.10;99.90;;;;;;4938481;29;20039;-88
2023/01/03 04:08:49;;;;;;;17.47;13.53;;;8.10;99.90;;;;;;4918795;29;20046;-88
2023/01/03 04:11:15;;;;;;;15.17;13.53;;;8.10;99.90;;;;;;4937297;29;20130;-87
2023/01/03 04:13:41;;;;;;;16.57;13.80;;;8.10;99.90;;;;;;4923323;29;20046;-88
2023/01/03 04:16:07;;;;;;;19.13;14.20;;;8.10;99.90;;;;;;4934179;28;20031;-88
2023/01/03 04:18:33;;;;;;;18.77;14.40;;;8.20;99.90;;;;;;4955209;29;20035;-88
2023/01/03 04:21:00;;;;;;;15.23;13.77;;;8.10;99.90;;;;;;4954326;28;20054;-87
2023/01/03 04:23:26;;;;;;;15.50;13.90;;;8.00;99.90;;;;;;4970508;28;20042;-88
2023/01/03 04:25:52;;;;;;;15.37;13.83;;;8.00;99.90;;;;;;4953359;29;20027;-87
2023/01/03 04:28:18;;;;;;;15.33;13.80;;;8.00;99.90;;;;;;4938594;29;20031;-88
2023/01/03 04:30:44;;;;;;;17.97;14.10;;;8.00;99.90;;;;;;4955228;28;20493;-88
2023/01/03 04:33:10;;;;;;;15.70;14.00;;;8.00;99.90;;;;;;4932592;29;20036;-89
2023/01/03 04:35:36;;;;;;;14.47;13.07;;;8.00;99.90;;;;;;4955750;29;20487;-88
2023/01/03 04:38:03;;;;;;;14.77;12.87;;;7.90;99.90;;;;;;4959713;28;20023;-87
2023/01/03 04:40:29;;;;;;;14.97;13.37;;;7.80;99.90;;;;;;4918532;29;20039;-88
2023/01/03 04:45:40;;;;;;;14.83;13.00;;;7.80;99.90;;;;;;4945059;28;20050;-88
2023/01/03 04:48:06;;;;;;;15.27;13.53;;;7.80;99.90;;;;;;4919300;29;20478;-87
2023/01/03 04:50:32;;;;;;;15.90;14.30;;;7.70;99.90;;;;;;4938625;29;20420;-88
2023/01/03 04:52:58;;;;;;;15.07;13.47;;;7.70;99.90;;;;;;4955498;28;20039;-88
2023/01/03 04:55:24;;;;;;;15.87;14.57;;;7.70;99.90;;;;;;4951073;29;20038;-87
2023/01/03 04:57:51;;;;;;;326.73;29.63;;;7.60;99.90;;;;;;4964250;28;20039;-88
2023/01/03 05:00:17;;;;;;;16.10;14.73;;;7.50;99.90;;;;;;4950860;28;20489;-88
2023/01/03 05:02:43;;;;;;;17.00;15.50;;;7.60;99.90;;;;;;4935958;29;20046;-88
2023/01/03 05:05:09;;;;;;;18.07;16.20;;;7.50;99.90;;;;;;4954201;29;20042;-88
2023/01/03 05:07:36;;;;;;;18.67;16.73;;;7.60;99.90;;;;;;4954687;28;20043;-88
2023/01/03 05:10:02;;;;;;;17.93;16.40;;;7.60;99.90;;;;;;4936179;29;20027;-88
2023/01/03 05:12:28;;;;;;;18.37;16.70;;;7.50;99.90;;;;;;4937397;29;20046;-88
2023/01/03 05:14:54;;;;;;;17.40;15.90;;;7.50;99.90;;;;;;4936747;29;20043;-88
2023/01/03 05:17:20;;;;;;;18.50;16.87;;;7.60;99.90;;;;;;4935971;28;20054;-88
2023/01/03 05:28:01;;;;;;;20.63;16.20;;;7.70;99.90;;;;;;4953945;28;20393;-88
2023/01/03 05:30:27;;;;;;;16.17;14.87;;;7.70;99.90;;;;;;4934069;28;20370;-87
2023/01/03 05:32:54;;;;;;;14.23;13.03;;;7.70;99.90;;;;;;4952727;29;20028;-87
2023/01/03 05:35:20;;;;;;;18.97;12.40;;;7.70;99.90;;;;;;4958692;28;20039;-88
2023/01/03 05:37:46;;;;;;;13.87;12.77;;;7.70;99.90;;;;;;4939939;29;20032;-88
2023/01/03 05:40:12;;;;;;;15.07;13.53;;;7.70;99.90;;;;;;4921838;28;20500;-88
2023/01/03 05:42:38;;;;;;;18.03;16.27;;;7.60;99.90;;;;;;4918293;29;20515;-88
2023/01/03 05:45:05;;;;;;;18.87;16.93;;;7.40;99.90;;;;;;4918181;28;20483;-88
2023/01/03 05:47:31;;;;;;;16.73;15.23;;;7.30;99.90;;;;;;4948412;29;20044;-88
2023/01/03 05:49:57;;;;;;;21.87;19.53;;;7.30;99.90;;;;;;4942484;29;20047;-87
2023/01/03 05:52:23;;;;;;;19.17;17.70;;;7.30;99.90;;;;;;4943750;28;20032;-88
2023/01/03 05:54:49;;;;;;;19.97;18.47;;;7.40;99.90;;;;;;4949936;29;20043;-88
2023/01/03 05:57:15;;;;;;;16.13;14.60;;;7.40;99.90;;;;;;4929600;29;20043;-87
2023/01/03 05:59:41;;;;;;;19.53;17.73;;;7.50;99.90;;;;;;4938664;29;20062;-88
2023/01/03 06:02:07;;;;;;;19.93;18.23;;;7.50;99.90;;;;;;4937927;28;20031;-88
2023/01/03 06:04:33;;;;;;;20.27;18.73;;;7.40;99.90;;;;;;4921995;29;20074;-88
2023/01/03 06:07:00;;;;;;;18.57;16.97;;;7.50;99.90;;;;;;4950907;29;20039;-87
2023/01/03 06:09:26;;;;;;;19.40;17.50;;;7.40;99.90;;;;;;4956173;28;20027;-85
2023/01/03 06:11:52;;;;;;;18.97;16.97;;;7.40;99.90;;;;;;4926790;29;20043;-87
2023/01/03 06:14:18;;;;;;;17.23;15.83;;;7.50;99.90;;;;;;4920026;29;20050;-90
2023/01/03 06:19:29;;;;;;;19.27;17.37;;;7.40;99.90;;;;;;4946522;28;20035;-89
2023/01/03 06:21:56;;;;;;;18.47;16.90;;;7.30;99.90;;;;;;4949134;29;20028;-90
2023/01/03 06:24:22;;;;;;;17.87;15.90;;;7.40;99.90;;;;;;4946135;29;20043;-90
2023/01/03 06:26:48;;;;;;;19.63;17.70;;;7.40;99.90;;;;;;4932182;29;20749;-89
2023/01/03 06:29:14;;;;;;;18.67;16.03;;;7.30;99.90;;;;;;4917606;29;20043;-88
2023/01/03 06:31:40;;;;;;;147.13;24.10;;;7.20;99.90;;;;;;4936644;28;20036;-91
2023/01/03 06:34:06;;;;;;;20.50;15.57;;;7.30;99.90;;;;;;4945575;29;20046;-89
2023/01/03 06:36:33;;;;;;;63.93;16.33;;;7.30;99.90;;;;;;4928902;29;20032;-89
2023/01/03 06:38:59;;;;;;;16.77;14.67;;;7.10;99.90;;;;;;4935294;29;20036;-91
2023/01/03 06:41:25;;;;;;;16.07;14.70;;;6.90;99.90;;;;;;4946874;29;20042;-90
2023/01/03 06:43:53;;;;;;;16.37;14.80;;;6.80;99.90;;;;;;4954205;29;20043;-89
2023/01/03 06:54:37;;;;;;;19.00;17.37;;;6.40;99.90;;;;;;4944705;29;20492;-90
2023/01/03 06:57:04;;;;;;;26.47;23.27;;;6.30;99.90;;;;;;4924001;29;20031;-89
2023/01/03 06:59:30;;;;;;;21.80;20.03;;;6.30;99.90;;;;;;4924003;29;20039;-90
2023/01/03 07:01:56;;;;;;;26.13;23.53;;;6.30;99.90;;;;;;4953204;28;20409;-90
2023/01/03 07:04:23;;;;;;;24.50;22.20;;;6.30;99.90;;;;;;4932512;29;20036;-89
2023/01/03 07:06:49;;;;;;;24.57;21.63;;;6.30;99.90;;;;;;4954140;28;20027;-89
2023/01/03 07:09:15;;;;;;;24.77;22.43;;;6.40;99.90;;;;;;4939286;29;20035;-87
2023/01/03 07:11:41;;;;;;;21.67;19.50;;;6.40;99.90;;;;;;4924113;29;20042;-88
2023/01/03 07:14:08;;;;;;;21.37;19.57;;;6.40;99.90;;;;;;4951603;29;20378;-88
2023/01/03 07:16:37;;;;;;;27.03;24.20;;;6.40;99.90;;;;;;4955312;28;20082;-87
2023/01/03 07:19:04;;;;;;;24.70;22.53;;;6.40;99.90;;;;;;4920519;29;20043;-88
2023/01/03 07:21:31;;;;;;;22.03;20.13;;;6.40;99.90;;;;;;4925548;29;20027;-88
2023/01/03 07:23:57;;;;;;;56.60;21.70;;;6.50;99.90;;;;;;4956945;29;20058;-88
2023/01/03 07:26:24;;;;;;;22.80;20.77;;;6.60;99.90;;;;;;4955812;29;20022;-88
2023/01/03 07:28:50;;;;;;;23.50;21.43;;;6.70;99.90;;;;;;4950321;28;20036;-88
2023/01/03 07:31:17;;;;;;;23.63;21.83;;;6.60;99.90;;;;;;4950888;28;20032;-88
2023/01/03 07:33:44;;;;;;;23.00;21.30;;;6.70;99.90;;;;;;4942122;29;20042;-88
2023/01/03 07:36:11;;;;;;;22.23;20.53;;;6.70;99.90;;;;;;4937751;29;20030;-87
2023/01/03 07:38:38;;;;;;;19.63;18.03;;;6.80;99.90;;;;;;4937504;29;20476;-86
2023/01/03 07:41:04;;;;;;;20.63;18.90;;;6.90;99.90;;;;;;4934455;29;20042;-86
2023/01/03 07:43:36;;;;;;;20.00;18.30;;;6.90;99.90;;;;;;4949790;29;20043;-88
2023/01/03 07:46:06;;;;;;;23.07;20.57;;;7.00;99.90;;;;;;4950685;28;20370;-85
2023/01/03 07:48:33;;;;;;;22.00;20.03;;;7.10;99.90;;;;;;4934436;29;20042;-85
2023/01/03 07:50:59;;;;;;;24.47;22.17;;;7.20;99.90;;;;;;4920618;29;20024;-89
2023/01/03 07:53:25;;;;;;;22.27;20.43;;;7.10;99.90;;;;;;4920860;29;20031;-86
2023/01/03 07:55:51;;;;;;;22.77;21.00;;;7.10;99.90;;;;;;4936274;29;20059;-86
2023/01/03 07:58:18;;;;;;;23.70;18.40;;;7.20;99.90;;;;;;4937184;29;20031;-88
2023/01/03 08:00:44;;;;;;;17.30;15.37;;;7.10;99.90;;;;;;4921814;29;20054;-87
2023/01/03 08:03:10;;;;;;;19.03;17.33;;;7.10;99.90;;;;;;4923457;29;20027;-88
2023/01/03 08:05:36;;;;;;;19.70;18.10;;;7.00;99.90;;;;;;4950643;28;20066;-88
2023/01/03 08:08:02;;;;;;;18.73;17.13;;;7.10;99.90;;;;;;4935779;29;20513;-87
2023/01/03 08:13:18;;;;;;;18.93;17.27;;;7.00;99.90;;;;;;4922108;29;20034;-87
2023/01/03 08:15:52;;;;;;;21.97;18.57;;;6.90;99.90;;;;;;4935338;28;20396;-89
2023/01/03 08:18:20;;;;;;;18.03;16.10;;;6.90;99.90;;;;;;4927041;29;20070;-88
2023/01/03 08:20:46;;;;;;;19.77;18.17;;;7.00;99.90;;;;;;4945608;29;20038;-88
2023/01/03 08:23:13;;;;;;;18.53;16.93;;;6.90;99.90;;;;;;4954872;29;20035;-88
2023/01/03 08:25:39;;;;;;;16.83;15.43;;;6.90;99.90;;;;;;4953503;29;20042;-87
2023/01/03 08:28:06;;;;;;;18.47;16.80;;;6.90;99.90;;;;;;4954356;29;20031;-87
2023/01/03 08:30:33;;;;;;;18.60;15.77;;;6.90;99.90;;;;;;4937315;28;20039;-87
2023/01/03 08:33:01;;;;;;;21.27;19.63;;;6.90;99.90;;;;;;4909798;29;20065;-84
2023/01/03 08:35:29;;;;;;;23.43;21.27;;;7.10;99.90;;;;;;4922788;29;20473;-83
2023/01/03 08:37:56;;;;;;;34.30;32.00;;;7.40;99.90;;;;;;4922252;29;20051;-84
2023/01/03 08:40:22;;;;;;;30.27;27.67;;;7.50;99.90;;;;;;4923160;29;20042;-83
2023/01/03 08:42:49;;;;;;;23.20;21.10;;;7.80;99.90;;;;;;4937289;29;20050;-83
2023/01/03 08:45:15;;;;;;;23.33;21.33;;;8.00;99.90;;;;;;4936634;28;20047;-84
2023/01/03 08:47:42;;;;;;;21.33;19.67;;;8.00;99.90;;;;;;4938280;29;20037;-84
2023/01/03 08:50:08;;;;;;;21.33;19.23;;;8.10;99.90;;;;;;4938538;29;20390;-83
2023/01/03 08:52:34;;;;;;;19.37;17.80;;;8.10;99.90;;;;;;4931942;29;20031;-84
2023/01/03 08:55:00;;;;;;;20.67;19.07;;;8.20;99.90;;;;;;4920796;29;20058;-83
2023/01/03 08:57:26;;;;;;;23.93;21.80;;;8.30;99.90;;;;;;4945813;29;20036;-84
2023/01/03 08:59:53;;;;;;;20.80;18.80;;;8.30;99.90;;;;;;4936223;29;20060;-84
2023/01/03 09:02:19;;;;;;;22.23;19.80;;;8.30;99.90;;;;;;4905641;29;20039;-85
2023/01/03 09:04:45;;;;;;;20.92;19.05;;;8.30;99.90;;;;;;4941862;29;20043;-84
2023/01/03 09:07:11;;;;;;;24.23;22.30;;;8.30;99.90;;;;;;4923873;29;20036;-88
2023/01/03 09:09:37;;;;;;;22.90;20.80;;;8.30;99.90;;;;;;4947379;29;20047;-82
2023/01/03 09:12:03;;;;;;;25.13;23.23;;;8.50;99.90;;;;;;4940424;29;20038;-82
2023/01/03 09:14:30;;;;;;;21.70;19.80;;;8.50;99.90;;;;;;4918742;29;20034;-83
2023/01/03 09:16:56;;;;;;;25.00;23.23;;;8.60;99.90;;;;;;4921056;28;20035;-82
2023/01/03 09:19:22;;;;;;;24.10;22.25;;;8.70;99.90;;;;;;4934755;28;20425;-83
2023/01/03 09:21:48;;;;;;;25.38;23.27;;;8.70;99.90;;;;;;4921545;29;20036;-83
2023/01/03 09:24:14;;;;;;;26.40;24.15;;;8.80;99.90;;;;;;4953741;29;20971;-82
2023/01/03 09:26:40;;;;;;;25.80;23.33;;;8.80;99.90;;;;;;4952747;29;20042;-83
2023/01/03 09:29:06;;;;;;;25.45;23.02;;;8.90;99.90;;;;;;4937004;29;20035;-85
2023/01/03 09:31:33;;;;;;;23.42;21.40;;;8.90;99.90;;;;;;4937634;28;20046;-85
2023/01/03 09:34:01;;;;;;;22.05;20.27;;;8.90;99.90;;;;;;4946826;29;20058;-85
2023/01/03 09:36:27;;;;;;;21.23;19.25;;;9.00;99.90;;;;;;4938064;29;20484;-83
2023/01/03 09:38:54;;;;;;;21.45;19.38;;;9.00;99.90;;;;;;4955465;28;20034;-85
2023/01/03 09:41:22;;;;;;;19.65;18.02;;;9.00;99.90;;;;;;4918837;29;20042;-85
2023/01/03 09:43:49;;;;;;;20.65;18.52;;;9.00;99.90;;;;;;4913457;29;20028;-85
2023/01/03 09:46:23;;;;;;;20.55;18.73;;;9.10;99.90;;;;;;4928403;29;20051;-86
2023/01/03 09:48:49;;;;;;;21.00;19.00;;;9.10;99.90;;;;;;4932025;29;20040;-85
2023/01/03 10:03:42;;;;;;;20.75;19.00;;;9.50;99.90;;;;;;4878258;29;20080;-86
2023/01/03 10:06:17;;;;;;;20.77;19.08;;;9.60;99.90;;;;;;4900670;29;20049;-86
2023/01/03 10:08:50;;;;;;;21.10;19.33;;;9.70;99.90;;;;;;4864043;29;20037;-85
2023/01/03 10:11:24;;;;;;;22.73;20.80;;;9.70;99.90;;;;;;4879221;29;20055;-86
2023/01/03 10:14:23;;;;;;;23.13;20.35;;;9.80;99.90;;;;;;4878001;29;20445;-85
2023/01/03 10:16:58;;;;;;;22.67;20.20;;;9.90;99.90;;;;;;4852139;29;21126;-85
2023/01/03 10:19:46;;;;;;;19.75;17.92;;;10.00;99.90;;;;;;4857438;29;20046;-85
2023/01/03 10:22:21;;;;;;;17.52;16.23;;;10.10;99.90;;;;;;4847870;29;20030;-84
2023/01/03 10:25:11;;;;;;;16.23;13.77;;;10.30;99.90;;;;;;4841042;29;20042;-86
2023/01/03 10:27:40;;;;;;;16.35;14.15;;;10.40;99.90;;;;;;4853588;29;20038;-85
2023/01/03 10:30:10;;;;;;;17.45;15.93;;;10.60;99.90;;;;;;4858207;29;20072;-85
2023/01/03 10:32:48;;;;;;;17.38;15.90;;;10.60;99.90;;;;;;4857116;29;20042;-86
2023/01/03 10:35:31;;;;;;;17.65;16.02;;;10.80;99.90;;;;;;4872673;29;20407;-85
2023/01/03 10:37:57;;;;;;;17.48;15.65;;;10.90;99.90;;;;;;4861567;29;20021;-85
2023/01/03 10:40:43;;;;;;;18.58;17.08;;;11.00;99.90;;;;;;4863923;29;20496;-87
2023/01/03 10:43:17;;;;;;;19.13;17.58;;;11.00;99.90;;;;;;4852692;29;20033;-86
2023/01/03 10:46:06;;;;;;;18.52;15.93;;;11.10;99.90;;;;;;4846633;29;20045;-85
2023/01/03 10:48:39;;;;;;;18.83;17.10;;;11.00;99.90;;;;;;4832074;29;20072;-85
2023/01/03 10:51:20;;;;;;;16.80;15.13;;;11.00;99.90;;;;;;4830424;29;20058;-85
2023/01/03 10:53:46;;;;;;;17.35;15.60;;;11.00;99.90;;;;;;4907633;29;20048;-92
2023/01/03 10:56:13;;;;;;;17.50;15.93;;;11.10;99.90;;;;;;4925865;29;20031;-88
2023/01/03 10:58:39;;;;;;;21.95;17.83;;;11.30;99.90;;;;;;4917386;29;20047;-87
2023/01/03 11:01:19;;;;;;;18.85;17.15;;;11.30;99.90;;;;;;4945273;28;20038;-90
2023/01/03 11:04:05;;;;;;;19.23;16.63;;;11.40;99.90;;;;;;4921451;29;20031;-90
2023/01/03 11:06:31;;;;;;;17.35;15.65;;;11.50;99.90;;;;;;4921413;29;20039;-90
2023/01/03 11:09:00;;;;;;;18.08;16.40;;;11.50;99.90;;;;;;4904916;29;20035;-90
2023/01/03 11:11:31;;;;;;;19.15;16.95;;;11.60;99.90;;;;;;4921385;29;20488;-87
2023/01/03 11:14:25;;;;;;;17.05;15.52;;;11.60;99.90;;;;;;4934175;29;20024;-87
2023/01/03 11:16:59;;;;;;;17.20;15.00;;;11.70;99.90;;;;;;4928578;28;20039;-90
2023/01/03 11:19:27;;;;;;;16.42;14.88;;;11.80;99.90;;;;;;4933611;28;20020;-90
2023/01/03 11:22:35;;;;;;;17.27;15.73;;;11.80;99.90;;;;;;4956886;29;20035;-89
2023/01/03 11:25:28;;;;;;;20.02;15.63;;;11.90;99.90;;;;;;4951209;29;20055;-88
2023/01/03 11:28:03;;;;;;;18.60;16.67;;;12.10;99.90;;;;;;4953161;29;20046;-86
2023/01/03 11:30:54;;;;;;;16.88;15.18;;;12.20;99.90;;;;;;4953042;28;20057;-90
2023/01/03 11:33:46;;;;;;;17.70;16.15;;;12.30;99.90;;;;;;4956063;29;20034;-88
2023/01/03 11:36:33;;;;;;;16.60;14.75;;;12.40;99.90;;;;;;4948359;29;20054;-89
2023/01/03 11:39:09;;;;;;;20.58;16.17;;;12.40;99.90;;;;;;4916308;29;20511;-89
2023/01/03 11:41:44;;;;;;;18.45;16.55;;;12.40;99.90;;;;;;4955283;29;20042;-88
2023/01/03 11:44:48;;;;;;;15.52;14.18;;;12.50;99.90;;;;;;4950923;29;20404;-86
2023/01/03 11:47:51;;;;;;;15.07;13.95;;;12.50;99.90;;;;;;4936752;28;20027;-88
2023/01/03 11:50:36;;;;;;;17.98;16.40;;;12.60;99.90;;;;;;4938184;29;20047;-89
2023/01/03 11:53:05;;;;;;;20.33;18.30;;;12.80;99.90;;;;;;4950466;29;20031;-88
2023/01/03 11:55:49;;;;;;;21.75;20.08;;;12.90;99.90;;;;;;4907522;29;20370;-89
2023/01/03 11:58:34;;;;;;;23.02;20.70;;;12.90;99.90;;;;;;4953786;29;20031;-88
2023/01/03 12:01:08;;;;;;;20.90;18.75;;;12.90;99.90;;;;;;4909148;28;20406;-88
2023/01/03 12:03:54;;;;;;;19.38;17.63;;;13.00;99.90;;;;;;4908648;29;20040;-88
2023/01/03 12:06:30;;;;;;;18.58;16.75;;;13.10;99.90;;;;;;4928702;29;20046;-90
2023/01/03 12:09:17;;;;;;;19.63;17.83;;;13.10;99.90;;;;;;4901421;29;20048;-88
2023/01/03 12:11:58;;;;;;;19.48;17.83;;;13.10;99.90;;;;;;4895380;29;20487;-89
2023/01/03 12:14:44;;;;;;;20.73;18.75;;;13.20;99.90;;;;;;4899507;29;20024;-89
2023/01/03 12:17:24;;;;;;;19.10;17.30;;;13.30;99.90;;;;;;4897778;29;20387;-89
2023/01/03 12:19:54;;;;;;;17.17;15.45;;;13.40;99.90;;;;;;4917511;29;20031;-89
2023/01/03 12:22:31;;;;;;;16.35;14.75;;;13.40;99.90;;;;;;4901071;29;20066;-88
2023/01/03 12:25:01;;;;;;;16.80;15.30;;;13.30;99.90;;;;;;4899453;29;20053;-88
2023/01/03 12:27:31;;;;;;;18.05;16.05;;;13.40;99.90;;;;;;4899035;29;20029;-90
2023/01/03 12:30:33;;;;;;;15.55;14.10;;;13.40;99.90;;;;;;4912431;29;20040;-90
2023/01/03 12:33:21;;;;;;;15.93;13.98;;;13.50;99.90;;;;;;4842702;29;20042;-87
2023/01/03 12:36:10;;;;;;;18.65;15.77;;;13.50;99.90;;;;;;4859053;29;20037;-87
2023/01/03 12:38:39;;;;;;;15.55;13.38;;;13.40;99.90;;;;;;4857953;29;20532;-90
2023/01/03 12:41:26;;;;;;;14.45;13.02;;;13.50;99.90;;;;;;4843336;29;20034;-89
2023/01/03 12:43:56;;;;;;;16.60;12.65;;;13.40;99.90;;;;;;4856073;29;20042;-91
2023/01/03 12:46:27;;;;;;;15.02;13.55;;;13.50;99.90;;;;;;4831800;29;20065;-90
2023/01/03 12:49:16;;;;;;;15.30;12.80;;;13.60;99.90;;;;;;4853807;29;20111;-90
2023/01/03 12:51:42;;;;;;;13.95;12.40;;;13.60;99.90;;;;;;4860128;29;20419;-91
2023/01/03 12:54:33;;;;;;;17.95;13.07;;;13.70;99.90;;;;;;4861492;29;20044;-90
2023/01/03 12:57:26;;;;;;;13.77;12.65;;;13.80;99.90;;;;;;4858823;29;20553;-89
2023/01/03 13:00:08;;;;;;;14.70;13.25;;;13.70;99.90;;;;;;4868722;29;20060;-91
2023/01/03 13:02:56;;;;;;;14.70;13.15;;;13.80;99.90;;;;;;4854951;29;20037;-89
2023/01/03 13:05:44;;;;;;;14.07;12.90;;;13.80;99.90;;;;;;4895502;29;20056;-91
2023/01/03 13:08:15;;;;;;;15.27;12.82;;;13.80;99.90;;;;;;4880734;29;20043;-90
2023/01/03 13:10:43;;;;;;;14.50;13.20;;;13.70;99.90;;;;;;4916957;29;20032;-89
2023/01/03 13:13:17;;;;;;;14.25;12.95;;;13.70;99.90;;;;;;4899146;29;20066;-91
2023/01/03 13:15:45;;;;;;;14.30;13.30;;;13.70;99.90;;;;;;4915204;28;20032;-90
2023/01/03 13:18:20;;;;;;;13.73;12.63;;;13.70;99.90;;;;;;4899596;29;20024;-91
2023/01/03 13:20:50;;;;;;;14.93;13.57;;;13.70;99.90;;;;;;4907689;29;20529;-89
2023/01/03 13:23:31;;;;;;;14.27;13.15;;;13.70;99.90;;;;;;4881029;29;20037;-89
2023/01/03 13:26:05;;;;;;;14.63;13.05;;;13.60;99.90;;;;;;4897490;29;20049;-89
2023/01/03 13:28:38;;;;;;;14.10;13.02;;;13.60;99.90;;;;;;4898149;29;20029;-89
2023/01/03 13:31:13;;;;;;;14.27;12.93;;;13.60;99.90;;;;;;4895907;29;20498;-90
2023/01/03 13:34:10;;;;;;;14.10;12.18;;;13.50;99.90;;;;;;4913132;29;20048;-90
2023/01/03 13:37:04;;;;;;;13.55;12.35;;;13.50;99.90;;;;;;4894845;29;20525;-91
2023/01/03 13:39:50;;;;;;;14.52;13.13;;;13.60;99.90;;;;;;4895279;29;20060;-90
2023/01/03 13:42:27;;;;;;;14.30;13.32;;;13.60;99.90;;;;;;4847312;29;20053;-89
2023/01/03 13:45:14;;;;;;;14.10;12.95;;;13.50;99.90;;;;;;4827261;29;20148;-89
2023/01/03 13:47:50;;;;;;;13.20;12.02;;;13.40;99.90;;;;;;4826421;29;20049;-90
2023/01/03 13:50:32;;;;;;;14.68;13.40;;;13.40;99.90;;;;;;4825508;29;20042;-89
2023/01/03 13:53:02;;;;;;;14.75;13.00;;;13.40;99.90;;;;;;4825920;29;20143;-89
2023/01/03 13:55:34;;;;;;;13.15;11.85;;;13.40;99.90;;;;;;4842233;29;20041;-89
2023/01/03 13:58:00;;;;;;;15.10;13.55;;;13.40;99.90;;;;;;4840575;29;20038;-89